createdAt,value
2022-11-30T00:01:15.297Z,2.20
2022-11-30T00:03:43.324Z,2.10
2022-11-30T00:06:13.396Z,2.10
2022-11-30T00:08:40.969Z,2.00
2022-11-30T00:11:18.487Z,2.00
2022-11-30T00:13:45.676Z,2.10
2022-11-30T00:16:13.066Z,2.00
2022-11-30T00:18:40.559Z,2.10
2022-11-30T00:21:10.909Z,2.10
2022-11-30T00:23:40.112Z,2.10
2022-11-30T00:26:10.703Z,2.10
2022-11-30T00:28:38.764Z,2.00
2022-11-30T00:31:08.534Z,2.10
2022-11-30T00:33:37.728Z,2.10
2022-11-30T00:36:08.160Z,2.00
2022-11-30T00:38:36.043Z,2.10
2022-11-30T00:41:03.940Z,2.10
2022-11-30T00:43:31.559Z,2.10
2022-11-30T00:45:58.859Z,2.10
2022-11-30T00:48:26.260Z,2.00
2022-11-30T00:50:53.672Z,2.10
2022-11-30T00:53:21.532Z,2.00
2022-11-30T00:55:49.306Z,2.00
2022-11-30T00:58:17.228Z,2.00
2022-11-30T01:00:44.818Z,2.00
2022-11-30T01:03:12.852Z,2.00
2022-11-30T01:05:40.763Z,2.00
2022-11-30T01:08:10.173Z,2.00
2022-11-30T01:10:39.298Z,2.00
2022-11-30T01:13:07.255Z,2.00
2022-11-30T01:15:43.675Z,2.00
2022-11-30T01:18:11.285Z,2.00
2022-11-30T01:20:42.810Z,1.90
2022-11-30T01:23:10.412Z,1.90
2022-11-30T01:25:37.940Z,1.90
2022-11-30T01:28:05.441Z,1.80
2022-11-30T01:30:32.681Z,1.80
2022-11-30T01:33:04.429Z,1.80
2022-11-30T01:35:31.614Z,1.90
2022-11-30T01:37:58.737Z,1.90
2022-11-30T01:40:25.998Z,1.90
2022-11-30T01:42:53.231Z,1.90
2022-11-30T01:45:20.718Z,2.00
2022-11-30T01:47:52.259Z,2.00
2022-11-30T01:50:33.261Z,2.10
2022-11-30T01:53:01.969Z,2.00
2022-11-30T01:55:42.995Z,1.90
2022-11-30T01:58:16.702Z,1.90
2022-11-30T02:00:47.727Z,1.90
2022-11-30T02:03:41.523Z,2.00
2022-11-30T02:06:08.713Z,2.00
2022-11-30T02:08:36.100Z,1.90
2022-11-30T02:11:06.194Z,1.90
2022-11-30T02:13:50.335Z,2.10
2022-11-30T02:16:36.317Z,2.10
2022-11-30T02:19:44.134Z,2.00
2022-11-30T02:22:11.274Z,2.00
2022-11-30T02:25:14.326Z,2.00
2022-11-30T02:28:00.166Z,2.00
2022-11-30T02:30:28.741Z,2.00
2022-11-30T02:33:13.967Z,2.00
2022-11-30T02:35:49.194Z,2.00
2022-11-30T02:38:22.661Z,2.10
2022-11-30T02:40:49.968Z,2.10
2022-11-30T02:43:19.901Z,2.00
2022-11-30T02:45:58.998Z,1.90
2022-11-30T02:48:44.098Z,1.90
2022-11-30T02:51:16.059Z,1.90
2022-11-30T02:53:43.985Z,1.80
2022-11-30T02:56:11.149Z,1.90
2022-11-30T02:58:39.314Z,1.80
2022-11-30T03:01:06.825Z,1.90
2022-11-30T03:03:34.174Z,1.90
2022-11-30T03:06:01.353Z,2.10
2022-11-30T03:08:28.490Z,2.00
2022-11-30T03:10:55.670Z,2.00
2022-11-30T03:13:22.883Z,2.00
2022-11-30T03:15:50.226Z,2.00
2022-11-30T03:18:17.520Z,1.90
2022-11-30T03:20:44.682Z,1.90
2022-11-30T03:23:12.274Z,1.90
2022-11-30T03:25:39.600Z,1.80
2022-11-30T03:28:06.877Z,1.80
2022-11-30T03:30:34.327Z,1.70
2022-11-30T03:33:01.635Z,1.80
2022-11-30T03:35:28.877Z,1.70
2022-11-30T03:37:56.332Z,1.80
2022-11-30T03:40:23.541Z,1.80
2022-11-30T03:42:50.768Z,1.70
2022-11-30T03:45:18.417Z,1.60
2022-11-30T03:47:46.056Z,1.60
2022-11-30T03:50:13.273Z,1.60
2022-11-30T03:52:40.742Z,1.70
2022-11-30T03:55:08.522Z,1.70
2022-11-30T03:57:35.692Z,1.70
2022-11-30T04:00:04.295Z,1.60
2022-11-30T04:02:31.430Z,1.60
2022-11-30T04:04:59.011Z,1.50
2022-11-30T04:07:26.992Z,1.50
2022-11-30T04:09:54.194Z,1.50
2022-11-30T04:12:21.679Z,1.50
2022-11-30T04:14:49.074Z,1.40
2022-11-30T04:17:16.498Z,1.40
2022-11-30T04:19:43.682Z,1.40
2022-11-30T04:22:10.907Z,1.30
2022-11-30T04:24:38.108Z,1.30
2022-11-30T04:27:05.425Z,1.30
2022-11-30T04:29:32.864Z,1.20
2022-11-30T04:32:00.169Z,1.20
2022-11-30T04:34:28.775Z,1.10
2022-11-30T04:37:00.128Z,1.10
2022-11-30T04:39:27.788Z,1.00
2022-11-30T04:41:55.012Z,1.00
2022-11-30T04:44:22.384Z,1.00
2022-11-30T04:46:49.611Z,1.00
2022-11-30T04:49:16.920Z,0.80
2022-11-30T04:51:44.194Z,0.80
2022-11-30T04:54:11.476Z,0.80
2022-11-30T04:56:38.639Z,0.90
2022-11-30T04:59:05.866Z,0.80
2022-11-30T05:01:33.115Z,0.80
2022-11-30T05:04:00.398Z,0.90
2022-11-30T05:06:27.905Z,0.80
2022-11-30T05:08:55.276Z,0.70
2022-11-30T05:11:22.512Z,0.60
2022-11-30T05:13:49.776Z,0.70
2022-11-30T05:16:17.019Z,0.70
2022-11-30T05:18:44.357Z,0.80
2022-11-30T05:21:11.976Z,0.80
2022-11-30T05:23:39.098Z,0.80
2022-11-30T05:26:06.235Z,0.80
2022-11-30T05:28:33.534Z,0.80
2022-11-30T05:31:07.442Z,0.80
2022-11-30T05:33:35.036Z,0.70
2022-11-30T05:36:05.790Z,0.70
2022-11-30T05:38:36.179Z,0.70
2022-11-30T05:41:03.521Z,0.70
2022-11-30T05:43:30.707Z,0.70
2022-11-30T05:46:02.680Z,0.60
2022-11-30T05:48:29.986Z,0.60
2022-11-30T05:51:05.620Z,0.50
2022-11-30T05:53:33.569Z,0.50
2022-11-30T05:56:05.902Z,0.40
2022-11-30T05:58:33.499Z,0.40
2022-11-30T06:01:00.839Z,0.30
2022-11-30T06:03:32.904Z,0.30
2022-11-30T06:06:00.346Z,0.20
2022-11-30T06:08:28.269Z,0.20
2022-11-30T06:10:59.777Z,0.20
2022-11-30T06:13:28.973Z,0.10
2022-11-30T06:16:00.334Z,0.00
2022-11-30T06:18:27.582Z,0.00
2022-11-30T06:20:54.738Z,0.00
2022-11-30T06:23:21.961Z,0.10
2022-11-30T06:25:49.189Z,0.10
2022-11-30T06:28:16.422Z,0.20
2022-11-30T06:30:44.055Z,0.30
2022-11-30T06:33:11.259Z,0.20
2022-11-30T06:35:44.367Z,0.20
2022-11-30T06:38:11.545Z,0.20
2022-11-30T06:40:38.896Z,0.20
2022-11-30T06:43:06.240Z,0.30
2022-11-30T06:45:33.504Z,0.30
2022-11-30T06:48:00.729Z,0.30
2022-11-30T06:50:27.927Z,0.30
2022-11-30T06:52:56.824Z,0.30
2022-11-30T06:55:24.308Z,0.40
2022-11-30T06:57:51.564Z,0.30
2022-11-30T07:00:19.333Z,0.20
2022-11-30T07:02:46.557Z,0.20
2022-11-30T07:05:13.890Z,0.20
2022-11-30T07:07:41.174Z,0.40
2022-11-30T07:10:09.308Z,0.40
2022-11-30T07:12:36.578Z,0.50
2022-11-30T07:15:04.859Z,0.40
2022-11-30T07:17:32.014Z,0.50
2022-11-30T07:19:59.517Z,0.50
2022-11-30T07:22:26.716Z,0.50
2022-11-30T07:25:12.369Z,0.50
2022-11-30T07:27:39.608Z,0.40
2022-11-30T07:30:07.544Z,0.50
2022-11-30T07:32:34.746Z,0.40
2022-11-30T07:35:02.023Z,0.30
2022-11-30T07:37:29.311Z,0.40
2022-11-30T07:39:56.653Z,0.20
2022-11-30T07:42:23.849Z,0.10
2022-11-30T07:44:56.937Z,0.00
2022-11-30T07:47:25.924Z,0.10
2022-11-30T07:49:53.117Z,0.00
2022-11-30T07:52:20.315Z,0.10
2022-11-30T07:54:47.663Z,0.20
2022-11-30T07:57:15.075Z,0.20
2022-11-30T07:59:42.229Z,0.10
2022-11-30T08:02:11.070Z,0.10
2022-11-30T08:04:38.368Z,0.10
2022-11-30T08:07:05.599Z,0.20
2022-11-30T08:09:32.837Z,0.20
2022-11-30T08:12:00.167Z,0.10
2022-11-30T08:14:27.290Z,0.20
2022-11-30T08:16:54.542Z,0.10
2022-11-30T08:19:21.805Z,0.00
2022-11-30T08:21:49.121Z,-0.10
2022-11-30T08:24:16.423Z,0.00
2022-11-30T08:26:43.728Z,-0.10
2022-11-30T08:29:11.849Z,-0.10
2022-11-30T08:31:39.341Z,0.00
2022-11-30T08:34:09.874Z,0.10
2022-11-30T08:36:37.294Z,0.20
2022-11-30T08:39:05.885Z,0.10
2022-11-30T08:41:35.443Z,0.10
2022-11-30T08:44:03.286Z,0.20
2022-11-30T08:52:16.872Z,0.10
2022-11-30T08:54:47.034Z,0.00
2022-11-30T08:57:16.485Z,0.00
2022-11-30T08:59:44.117Z,0.00
2022-11-30T09:02:14.245Z,0.00
2022-11-30T09:04:41.699Z,0.10
2022-11-30T09:07:09.744Z,0.20
2022-11-30T09:09:37.828Z,0.40
2022-11-30T09:12:05.709Z,0.40
2022-11-30T09:14:33.028Z,0.50
2022-11-30T09:17:00.230Z,0.70
2022-11-30T09:19:27.543Z,0.60
2022-11-30T09:21:54.817Z,0.70
2022-11-30T09:24:22.417Z,0.80
2022-11-30T09:26:49.659Z,0.90
2022-11-30T09:29:16.963Z,0.90
2022-11-30T09:31:44.247Z,0.90
2022-11-30T09:34:12.541Z,1.00
2022-11-30T09:36:39.989Z,1.00
2022-11-30T09:39:13.194Z,1.10
2022-11-30T09:42:04.670Z,1.20
2022-11-30T09:44:50.645Z,1.30
2022-11-30T09:48:03.747Z,1.80
2022-11-30T09:50:37.647Z,1.80
2022-11-30T09:53:10.689Z,2.00
2022-11-30T09:55:41.613Z,2.10
2022-11-30T09:58:23.156Z,1.90
2022-11-30T10:00:50.478Z,1.80
2022-11-30T10:03:20.669Z,1.60
2022-11-30T10:05:50.458Z,1.30
2022-11-30T10:08:44.893Z,1.20
2022-11-30T10:12:02.087Z,1.20
2022-11-30T10:15:13.313Z,1.10
2022-11-30T10:17:53.184Z,1.00
2022-11-30T10:20:49.013Z,1.00
2022-11-30T10:23:27.305Z,0.90
2022-11-30T10:26:17.217Z,0.90
2022-11-30T10:29:22.754Z,0.90
2022-11-30T10:31:56.570Z,0.90
2022-11-30T10:34:35.519Z,0.90
2022-11-30T10:37:37.543Z,0.90
2022-11-30T10:40:14.946Z,0.90
2022-11-30T10:42:44.826Z,0.90
2022-11-30T10:45:15.403Z,0.90
2022-11-30T10:48:08.099Z,0.80
2022-11-30T10:50:35.293Z,0.90
2022-11-30T10:53:02.876Z,0.80
2022-11-30T10:55:36.292Z,0.70
2022-11-30T10:58:25.957Z,0.80
2022-11-30T11:01:11.584Z,0.70
2022-11-30T11:03:39.051Z,0.80
2022-11-30T11:06:22.823Z,0.90
2022-11-30T11:08:51.170Z,1.00
2022-11-30T11:11:38.375Z,1.00
2022-11-30T11:14:16.499Z,1.00
2022-11-30T11:17:00.459Z,1.00
2022-11-30T11:19:40.346Z,1.00
2022-11-30T11:22:26.683Z,1.00
2022-11-30T11:25:30.447Z,1.00
2022-11-30T11:28:14.292Z,1.20
2022-11-30T11:30:42.416Z,1.10
2022-11-30T11:33:12.372Z,1.10
2022-11-30T11:35:45.440Z,1.10
2022-11-30T11:38:24.787Z,1.00
2022-11-30T11:41:29.765Z,1.00
2022-11-30T11:44:04.765Z,1.00
2022-11-30T11:46:34.622Z,1.10
2022-11-30T11:49:22.081Z,1.20
2022-11-30T11:52:01.069Z,1.10
2022-11-30T11:54:41.527Z,1.10
2022-11-30T11:57:12.888Z,1.10
2022-11-30T11:59:59.211Z,1.00
2022-11-30T12:02:42.657Z,1.00
2022-11-30T12:05:16.776Z,1.10
2022-11-30T12:08:05.726Z,1.10
2022-11-30T12:10:57.424Z,1.10
2022-11-30T12:13:34.524Z,1.00
2022-11-30T12:16:40.890Z,0.90
2022-11-30T12:19:17.693Z,0.90
2022-11-30T12:22:23.236Z,0.90
2022-11-30T12:25:05.729Z,0.90
2022-11-30T12:27:54.073Z,0.80
2022-11-30T12:30:32.454Z,0.70
2022-11-30T12:33:18.256Z,0.70
2022-11-30T12:36:18.506Z,0.60
2022-11-30T12:38:58.867Z,0.50
2022-11-30T12:41:32.178Z,0.40
2022-11-30T12:44:17.762Z,0.40
2022-11-30T12:47:17.888Z,0.40
2022-11-30T12:49:53.230Z,0.40
2022-11-30T12:52:47.339Z,0.30
2022-11-30T12:55:34.566Z,0.20
2022-11-30T12:58:16.849Z,0.10
2022-11-30T13:00:50.345Z,0.10
2022-11-30T13:03:50.826Z,0.10
2022-11-30T13:06:30.386Z,0.00
2022-11-30T13:09:00.971Z,-0.10
2022-11-30T13:11:40.020Z,-0.20
2022-11-30T13:14:16.240Z,-0.20
2022-11-30T13:16:44.568Z,-0.30
2022-11-30T13:19:28.907Z,-0.20
2022-11-30T13:22:02.824Z,-0.10
2022-11-30T13:24:39.870Z,-0.10
2022-11-30T13:27:16.414Z,-0.30
2022-11-30T13:30:07.394Z,-0.40
2022-11-30T13:32:57.240Z,-0.40
2022-11-30T13:35:28.901Z,-0.50
2022-11-30T13:41:07.459Z,-0.60
2022-11-30T13:43:45.982Z,-0.50
2022-11-30T13:46:26.093Z,-0.50
2022-11-30T13:49:19.885Z,-0.60
2022-11-30T13:52:01.421Z,-0.70
2022-11-30T13:54:47.909Z,-0.70
2022-11-30T13:57:30.406Z,-0.70
2022-11-30T14:00:03.359Z,-0.80
2022-11-30T14:02:42.069Z,-0.70
2022-11-30T14:05:18.373Z,-0.70
2022-11-30T14:07:51.560Z,-0.60
2022-11-30T14:10:35.539Z,-0.70
2022-11-30T14:13:29.759Z,-0.70
2022-11-30T14:16:00.787Z,-0.80
2022-11-30T14:18:40.523Z,-0.70
2022-11-30T14:21:25.310Z,-0.80
2022-11-30T14:23:59.242Z,-0.90
2022-11-30T14:26:40.534Z,-1.00
2022-11-30T14:29:07.625Z,-1.10
2022-11-30T14:31:41.082Z,-1.20
2022-11-30T14:34:32.792Z,-1.20
2022-11-30T14:37:05.629Z,-1.20
2022-11-30T14:39:35.507Z,-1.10
2022-11-30T14:42:04.909Z,-1.00
2022-11-30T14:44:36.698Z,-1.10
2022-11-30T14:47:28.596Z,-1.10
2022-11-30T14:49:57.336Z,-1.20
2022-11-30T14:52:42.575Z,-1.20
2022-11-30T14:55:32.107Z,-1.30
2022-11-30T14:58:21.304Z,-1.20
2022-11-30T15:00:48.928Z,-1.10
2022-11-30T15:03:33.560Z,-1.10
2022-11-30T15:06:05.557Z,-1.10
2022-11-30T15:08:49.991Z,-1.20
2022-11-30T15:11:18.391Z,-1.30
2022-11-30T15:13:48.987Z,-1.40
2022-11-30T15:16:36.669Z,-1.40
2022-11-30T15:19:25.268Z,-1.40
2022-11-30T15:21:53.700Z,-1.40
2022-11-30T15:24:21.772Z,-1.50
2022-11-30T15:27:10.009Z,-1.50
2022-11-30T15:29:41.690Z,-1.40
2022-11-30T15:32:17.075Z,-1.40
2022-11-30T15:34:57.476Z,-1.30
2022-11-30T15:37:39.087Z,-1.40
2022-11-30T15:40:09.356Z,-1.50
2022-11-30T15:42:44.535Z,-1.50
2022-11-30T15:45:18.713Z,-1.50
2022-11-30T15:47:46.258Z,-1.60
2022-11-30T15:50:29.253Z,-1.60
2022-11-30T15:52:59.125Z,-1.60
2022-11-30T15:55:46.942Z,-1.60
2022-11-30T15:58:26.025Z,-1.60
2022-11-30T16:01:18.700Z,-1.70
2022-11-30T16:04:03.562Z,-1.80
2022-11-30T16:06:45.764Z,-1.80
2022-11-30T16:09:22.766Z,-1.70
2022-11-30T16:11:54.407Z,-1.80
2022-11-30T16:14:21.601Z,-1.80
2022-11-30T16:16:49.407Z,-1.80
2022-11-30T16:19:16.684Z,-1.80
2022-11-30T16:21:44.281Z,-1.90
2022-11-30T16:24:15.989Z,-1.80
2022-11-30T16:26:50.904Z,-1.80
2022-11-30T16:29:18.944Z,-1.80
2022-11-30T16:31:46.213Z,-1.90
2022-11-30T16:34:13.698Z,-1.80
2022-11-30T16:36:40.890Z,-1.90
2022-11-30T16:39:12.607Z,-1.90
2022-11-30T16:41:39.992Z,-1.90
2022-11-30T16:44:13.447Z,-1.90
2022-11-30T16:46:40.778Z,-1.90
2022-11-30T16:49:07.937Z,-1.90
2022-11-30T16:51:36.331Z,-2.00
2022-11-30T16:54:04.549Z,-1.90
2022-11-30T16:56:31.697Z,-2.00
2022-11-30T16:59:00.010Z,-2.10
2022-11-30T17:01:36.399Z,-2.00
2022-11-30T17:04:24.633Z,-2.00
2022-11-30T17:06:57.383Z,-1.90
2022-11-30T17:09:30.535Z,-2.00
2022-11-30T17:11:57.880Z,-2.10
2022-11-30T17:14:25.064Z,-2.10
2022-11-30T17:16:52.374Z,-2.00
2022-11-30T17:19:19.592Z,-2.00
2022-11-30T17:21:48.543Z,-2.00
2022-11-30T17:24:16.077Z,-2.00
2022-11-30T17:26:43.322Z,-1.90
2022-11-30T17:29:10.493Z,-2.00
2022-11-30T17:31:37.790Z,-2.00
2022-11-30T17:34:05.684Z,-2.00
2022-11-30T17:36:32.864Z,-2.00
2022-11-30T17:39:03.793Z,-2.10
2022-11-30T17:41:31.060Z,-2.20
2022-11-30T17:43:58.203Z,-2.20
2022-11-30T17:46:25.572Z,-2.10
2022-11-30T17:48:52.897Z,-2.10
2022-11-30T17:51:20.088Z,-2.00
2022-11-30T17:53:47.442Z,-2.10
2022-11-30T17:56:17.084Z,-2.10
2022-11-30T17:58:45.586Z,-2.10
2022-11-30T18:01:21.258Z,-2.00
2022-11-30T18:03:49.048Z,-2.00
2022-11-30T18:06:17.126Z,-2.10
2022-11-30T18:08:44.910Z,-2.20
2022-11-30T18:11:19.244Z,-2.20
2022-11-30T18:13:47.331Z,-2.10
2022-11-30T18:16:18.241Z,-2.00
2022-11-30T18:18:48.131Z,-2.00
2022-11-30T18:21:19.195Z,-1.90
2022-11-30T18:23:47.127Z,-1.80
2022-11-30T18:26:20.267Z,-1.80
2022-11-30T18:28:59.775Z,-1.80
2022-11-30T18:31:29.876Z,-1.70
2022-11-30T18:34:01.810Z,-1.50
2022-11-30T18:36:29.427Z,-1.50
2022-11-30T18:38:56.718Z,-1.60
2022-11-30T18:41:26.425Z,-1.60
2022-11-30T18:43:54.294Z,-1.70
2022-11-30T18:46:21.799Z,-1.70
2022-11-30T18:48:50.836Z,-1.80
2022-11-30T18:51:27.697Z,-1.50
2022-11-30T18:53:59.923Z,-1.50
2022-11-30T18:56:30.164Z,-1.40
2022-11-30T18:58:59.858Z,-1.40
2022-11-30T19:01:28.111Z,-1.50
2022-11-30T19:04:00.536Z,-1.50
2022-11-30T19:06:29.968Z,-1.40
2022-11-30T19:08:57.711Z,-1.40
2022-11-30T19:11:25.922Z,-1.40
2022-11-30T19:14:00.227Z,-1.40
2022-11-30T19:16:29.469Z,-1.50
2022-11-30T19:19:00.178Z,-1.60
2022-11-30T19:21:27.754Z,-1.60
2022-11-30T19:23:56.586Z,-1.50
2022-11-30T19:26:23.927Z,-1.60
2022-11-30T19:28:55.366Z,-1.50
2022-11-30T19:31:23.519Z,-1.50
2022-11-30T19:33:52.685Z,-1.50
2022-11-30T19:36:25.885Z,-1.40
2022-11-30T19:38:53.654Z,-1.30
2022-11-30T19:41:21.567Z,-1.20
2022-11-30T19:44:03.294Z,-1.20
2022-11-30T19:46:32.140Z,-1.10
2022-11-30T19:49:01.634Z,-1.20
2022-11-30T19:51:30.334Z,-1.10
2022-11-30T19:53:57.757Z,-1.00
2022-11-30T19:56:25.900Z,-1.00
2022-11-30T19:58:53.877Z,-1.10
2022-11-30T20:01:23.880Z,-1.10
2022-11-30T20:03:53.766Z,-1.20
2022-11-30T20:06:26.882Z,-1.10
2022-11-30T20:08:55.758Z,-1.00
2022-11-30T20:11:23.293Z,-1.00
2022-11-30T20:13:51.625Z,-0.90
2022-11-30T20:16:20.931Z,-0.90
2022-11-30T20:19:00.952Z,-1.00
2022-11-30T20:21:31.413Z,-1.00
2022-11-30T20:24:02.313Z,-0.90
2022-11-30T20:26:32.755Z,-0.90
2022-11-30T20:29:01.994Z,-0.90
2022-11-30T20:31:31.704Z,-0.80
2022-11-30T20:33:59.345Z,-0.80
2022-11-30T20:36:26.682Z,-0.80
2022-11-30T20:38:54.153Z,-0.80
2022-11-30T20:41:24.739Z,-0.70
2022-11-30T20:43:53.294Z,-0.80
2022-11-30T20:46:23.723Z,-0.90
2022-11-30T20:48:54.741Z,-0.80
2022-11-30T20:51:33.209Z,-0.80
2022-11-30T20:54:04.423Z,-0.80
2022-11-30T20:56:32.706Z,-0.80
2022-11-30T20:59:06.212Z,-0.80
2022-11-30T21:01:34.209Z,-0.70
2022-11-30T21:04:01.650Z,-0.70
2022-11-30T21:06:30.156Z,-0.80
2022-11-30T21:08:58.722Z,-0.80
2022-11-30T21:11:27.818Z,-0.90
2022-11-30T21:13:55.882Z,-0.80
2022-11-30T21:16:28.608Z,-0.70
2022-11-30T21:18:58.461Z,-0.70
2022-11-30T21:21:34.068Z,-0.70
2022-11-30T21:24:04.336Z,-0.80
2022-11-30T21:26:38.469Z,-0.80
2022-11-30T21:29:11.485Z,-0.90
2022-11-30T21:31:38.919Z,-0.80
2022-11-30T21:34:06.342Z,-0.70
2022-11-30T21:36:33.850Z,-0.60
2022-11-30T21:39:06.036Z,-0.50
2022-11-30T21:41:36.489Z,-0.60
2022-11-30T21:44:04.664Z,-0.60
2022-11-30T21:46:32.346Z,-0.70
2022-11-30T21:49:00.038Z,-0.60
2022-11-30T21:51:28.902Z,-0.60
2022-11-30T21:53:59.185Z,-0.70
2022-11-30T21:56:35.333Z,-0.60
2022-11-30T21:59:05.462Z,-0.60
2022-11-30T22:01:35.714Z,-0.40
2022-11-30T22:04:05.015Z,-0.40
2022-11-30T22:06:34.158Z,-0.40
2022-11-30T22:09:08.041Z,-0.30
2022-11-30T22:11:39.137Z,-0.40
2022-11-30T22:14:08.006Z,-0.30
2022-11-30T22:16:36.560Z,-0.40
2022-11-30T22:19:05.549Z,-0.30
2022-11-30T22:21:32.966Z,-0.10
2022-11-30T22:24:09.811Z,0.00
2022-11-30T22:26:39.771Z,-0.10
2022-11-30T22:29:14.181Z,-0.30
2022-11-30T22:31:44.180Z,-0.30
2022-11-30T22:34:11.873Z,-0.40
2022-11-30T22:36:41.748Z,-0.30
2022-11-30T22:39:12.757Z,-0.30
2022-11-30T22:41:41.844Z,-0.30
2022-11-30T22:44:13.285Z,-0.40
2022-11-30T22:46:41.089Z,-0.50
2022-11-30T22:49:15.825Z,-0.60
2022-11-30T22:51:46.162Z,-0.40
2022-11-30T22:54:13.443Z,-0.40
2022-11-30T22:56:41.629Z,-0.40
2022-11-30T22:59:12.108Z,-0.40
2022-11-30T23:01:43.209Z,-0.30
2022-11-30T23:04:13.185Z,-0.20
2022-11-30T23:06:42.527Z,-0.20
2022-11-30T23:09:14.012Z,-0.30
2022-11-30T23:11:41.552Z,-0.40
2022-11-30T23:14:09.719Z,-0.40
2022-11-30T23:16:37.484Z,-0.40
2022-11-30T23:19:06.236Z,-0.30
2022-11-30T23:21:41.710Z,-0.30
2022-11-30T23:24:14.723Z,-0.20
2022-11-30T23:26:45.262Z,-0.30
2022-11-30T23:29:14.672Z,-0.40
2022-11-30T23:31:43.943Z,-0.30
2022-11-30T23:34:17.292Z,-0.10
2022-11-30T23:36:45.174Z,-0.20
2022-11-30T23:39:15.044Z,0.00
2022-11-30T23:41:42.708Z,0.00
2022-11-30T23:44:10.861Z,-0.10
2022-11-30T23:46:38.624Z,-0.10
2022-11-30T23:49:05.875Z,-0.10
2022-11-30T23:51:33.108Z,-0.10
2022-11-30T23:54:00.315Z,0.00
2022-11-30T23:56:27.525Z,0.10
2022-11-30T23:58:54.712Z,0.20
